Time;durP1;ratioP1;P1;durP2;ratioP2;P2;SDS_P1;SDS_P2;PMS_P1;PMS_P2;Temp;Humidity;BMP_temperature;BMP_pressure;BME280_temperature;BME280_humidity;BME280_pressure;Samples;Min_cycle;Max_cycle;Signal;HPM_P1;HPM_P2
2022/08/08 00:00:25;;;;;;;6.00;2.53;;;;;;;;;;5072207;28;20431;-78
2022/08/08 00:02:54;;;;;;;3.13;2.23;;;;;;;;;;5073103;28;20424;-78
2022/08/08 00:05:39;;;;;;;4.90;2.20;;;;;;;;;;5076099;28;20408;-77
2022/08/08 00:08:24;;;;;;;3.27;2.70;;;;;;;;;;5074883;28;20553;-78
2022/08/08 00:11:01;;;;;;;2.80;2.33;;;;;;;;;;5075516;28;20956;-79
2022/08/08 00:13:46;;;;;;;3.37;2.73;;;;;;;;;;5075942;28;20411;-78
2022/08/08 00:16:30;;;;;;;5.53;2.50;;;;;;;;;;5076058;28;20442;-78
2022/08/08 00:19:03;;;;;;;4.27;2.63;;;;;;;;;;5076046;28;20411;-78
2022/08/08 00:21:35;;;;;;;2.47;2.27;;;;;;;;;;5075606;28;20937;-78
2022/08/08 00:24:04;;;;;;;5.90;2.80;;;;;;;;;;5075873;28;20512;-78
2022/08/08 00:26:39;;;;;;;5.53;2.80;;;;;;;;;;5075036;28;20416;-78
2022/08/08 00:29:12;;;;;;;3.00;2.70;;;;;;;;;;5074581;28;20411;-77
2022/08/08 00:31:41;;;;;;;3.50;2.40;;;;;;;;;;5075292;28;20425;-79
2022/08/08 00:37:06;;;;;;;3.07;2.67;;;;;;;;;;5075825;28;20481;-78
2022/08/08 00:39:40;;;;;;;3.33;2.73;;;;;;;;;;5075253;28;20392;-78
2022/08/08 00:42:25;;;;;;;3.13;2.80;;;;;;;;;;5075632;28;20450;-78
2022/08/08 00:45:00;;;;;;;3.53;2.70;;;;;;;;;;5075582;28;20514;-79
2022/08/08 00:47:49;;;;;;;4.20;2.77;;;;;;;;;;5075614;28;20391;-79
2022/08/08 00:50:30;;;;;;;4.23;2.70;;;;;;;;;;5074918;28;20435;-77
2022/08/08 00:53:03;;;;;;;4.00;2.80;;;;;;;;;;5075367;28;20390;-78
2022/08/08 00:55:54;;;;;;;2.90;2.60;;;;;;;;;;5075424;28;20534;-78
2022/08/08 00:58:32;;;;;;;4.13;2.63;;;;;;;;;;5074036;28;20414;-78
2022/08/08 01:01:17;;;;;;;6.10;3.10;;;;;;;;;;5074808;28;20402;-78
2022/08/08 01:03:52;;;;;;;3.30;2.80;;;;;;;;;;5075026;28;20819;-78
2022/08/08 01:06:37;;;;;;;4.30;2.80;;;;;;;;;;5075235;28;20403;-79
2022/08/08 01:09:08;;;;;;;3.83;3.00;;;;;;;;;;5075205;28;20903;-78
2022/08/08 01:12:02;;;;;;;5.53;3.20;;;;;;;;;;5074722;28;20460;-79
2022/08/08 01:14:30;;;;;;;4.10;2.93;;;;;;;;;;5074446;28;20744;-79
2022/08/08 01:17:02;;;;;;;4.30;3.30;;;;;;;;;;5074944;28;20407;-79
2022/08/08 01:19:47;;;;;;;4.80;2.90;;;;;;;;;;5074810;28;20800;-79
2022/08/08 01:22:40;;;;;;;5.07;3.17;;;;;;;;;;5074716;28;20389;-78
2022/08/08 01:25:06;;;;;;;5.40;2.60;;;;;;;;;;5074855;28;20400;-78
2022/08/08 01:27:34;;;;;;;4.90;3.53;;;;;;;;;;5075015;28;20397;-78
2022/08/08 01:30:19;;;;;;;3.63;2.50;;;;;;;;;;5074369;28;20422;-78
2022/08/08 01:33:04;;;;;;;4.07;3.17;;;;;;;;;;5073433;28;20445;-78
2022/08/08 01:35:33;;;;;;;4.17;3.20;;;;;;;;;;5074583;28;20404;-78
2022/08/08 01:38:18;;;;;;;5.20;3.00;;;;;;;;;;5074382;28;20415;-78
2022/08/08 01:41:08;;;;;;;4.03;2.50;;;;;;;;;;5074068;28;20394;-79
2022/08/08 01:43:54;;;;;;;6.20;2.60;;;;;;;;;;5074200;28;20456;-78
2022/08/08 01:46:26;;;;;;;3.60;3.30;;;;;;;;;;5074118;28;20912;-79
2022/08/08 01:48:58;;;;;;;3.67;3.07;;;;;;;;;;5074121;28;20406;-77
2022/08/08 01:51:47;;;;;;;4.27;3.00;;;;;;;;;;5073981;28;20423;-79
2022/08/08 01:54:31;;;;;;;4.50;3.30;;;;;;;;;;5074076;28;20411;-77
2022/08/08 01:57:00;;;;;;;3.70;2.80;;;;;;;;;;5074228;28;20383;-79
2022/08/08 01:59:48;;;;;;;3.63;3.03;;;;;;;;;;5073928;28;20394;-78
2022/08/08 02:02:23;;;;;;;4.87;3.37;;;;;;;;;;5073847;28;20398;-78
2022/08/08 02:05:12;;;;;;;5.57;3.37;;;;;;;;;;5073750;28;20459;-78
2022/08/08 02:07:56;;;;;;;3.53;3.23;;;;;;;;;;5073990;28;20765;-78
2022/08/08 02:10:28;;;;;;;4.23;3.33;;;;;;;;;;5073238;28;20486;-79
2022/08/08 02:13:04;;;;;;;4.10;3.70;;;;;;;;;;5073664;28;20767;-79
2022/08/08 02:15:38;;;;;;;4.20;3.30;;;;;;;;;;5072480;28;20408;-79
2022/08/08 02:18:09;;;;;;;9.03;3.83;;;;;;;;;;5073872;28;20396;-80
2022/08/08 02:22:30;;;;;;;4.90;3.90;;;;;;;;;;5073434;28;20519;-78
2022/08/08 02:23:36;;;;;;;4.73;3.40;;;;;;;;;;5072401;28;20442;-78
2022/08/08 02:26:14;;;;;;;4.70;3.67;;;;;;;;;;5072666;28;20378;-77
2022/08/08 02:28:40;;;;;;;5.57;3.73;;;;;;;;;;5073533;28;20374;-79
2022/08/08 02:31:33;;;;;;;5.87;3.63;;;;;;;;;;5071887;28;20515;-78
2022/08/08 02:34:25;;;;;;;5.20;3.97;;;;;;;;;;5069600;28;20915;-78
2022/08/08 02:36:58;;;;;;;4.03;3.63;;;;;;;;;;5042864;28;20398;-78
2022/08/08 02:39:26;;;;;;;5.97;4.03;;;;;;;;;;5073364;28;20394;-78
2022/08/08 02:42:07;;;;;;;4.13;3.73;;;;;;;;;;5073044;28;20402;-77
2022/08/08 02:44:52;;;;;;;4.80;4.07;;;;;;;;;;5071738;28;20448;-78
2022/08/08 02:47:33;;;;;;;7.93;3.47;;;;;;;;;;5073372;28;20428;-78
2022/08/08 02:50:17;;;;;;;7.83;3.87;;;;;;;;;;5072995;28;20951;-79
2022/08/08 02:52:58;;;;;;;5.27;3.80;;;;;;;;;;5073203;28;20610;-79
2022/08/08 02:55:34;;;;;;;5.50;3.77;;;;;;;;;;5071745;28;20394;-78
2022/08/08 02:58:06;;;;;;;6.67;4.67;;;;;;;;;;5073173;28;20378;-79
2022/08/08 03:00:50;;;;;;;7.23;3.70;;;;;;;;;;5072757;28;20402;-79
2022/08/08 03:03:35;;;;;;;9.00;4.10;;;;;;;;;;5072987;28;20483;-79
2022/08/08 03:06:14;;;;;;;4.07;3.63;;;;;;;;;;5073179;28;20373;-78
2022/08/08 03:08:46;;;;;;;5.77;4.80;;;;;;;;;;5071466;28;20419;-78
2022/08/08 03:11:12;;;;;;;10.90;4.90;;;;;;;;;;5071316;28;20524;-79
2022/08/08 03:13:44;;;;;;;4.40;4.00;;;;;;;;;;5071727;28;20470;-79
2022/08/08 03:16:19;;;;;;;6.20;5.03;;;;;;;;;;5073134;28;20744;-79
2022/08/08 03:18:48;;;;;;;9.07;5.13;;;;;;;;;;5071508;28;20766;-79
2022/08/08 03:21:14;;;;;;;7.43;4.80;;;;;;;;;;5072585;28;20402;-78
2022/08/08 03:23:41;;;;;;;6.20;4.23;;;;;;;;;;5072859;28;20422;-79
2022/08/08 03:26:07;;;;;;;7.27;4.87;;;;;;;;;;5072847;28;20387;-78
2022/08/08 03:28:37;;;;;;;7.87;4.90;;;;;;;;;;5072823;28;20412;-77
2022/08/08 03:33:16;;;;;;;6.00;4.60;;;;;;;;;;5071356;28;20517;-78
2022/08/08 03:33:49;;;;;;;5.47;4.90;;;;;;;;;;5073040;28;20906;-78
2022/08/08 03:36:16;;;;;;;6.90;4.97;;;;;;;;;;5072842;28;20424;-77
2022/08/08 03:38:46;;;;;;;5.80;4.57;;;;;;;;;;5076248;28;20451;-78
2022/08/08 03:41:12;;;;;;;13.33;5.07;;;;;;;;;;5076525;28;20937;-78
2022/08/08 03:43:38;;;;;;;6.00;4.70;;;;;;;;;;5075549;28;20433;-79
2022/08/08 03:46:05;;;;;;;8.37;5.03;;;;;;;;;;5076662;28;20378;-78
2022/08/08 03:48:31;;;;;;;7.37;5.63;;;;;;;;;;5075263;28;20430;-78
2022/08/08 03:50:57;;;;;;;7.70;5.13;;;;;;;;;;5075894;28;20534;-78
2022/08/08 03:53:24;;;;;;;7.30;4.90;;;;;;;;;;5076409;28;20394;-77
2022/08/08 03:55:51;;;;;;;7.80;5.43;;;;;;;;;;5076366;28;20453;-78
2022/08/08 03:58:18;;;;;;;6.00;4.20;;;;;;;;;;5076458;28;20415;-77
2022/08/08 04:00:49;;;;;;;8.53;5.60;;;;;;;;;;5075810;28;20741;-79
2022/08/08 04:03:15;;;;;;;10.07;5.97;;;;;;;;;;5076074;28;20434;-78
2022/08/08 04:05:41;;;;;;;10.83;5.50;;;;;;;;;;5075198;28;20523;-77
2022/08/08 04:08:08;;;;;;;7.30;5.70;;;;;;;;;;5076124;28;20502;-78
2022/08/08 04:10:35;;;;;;;11.97;5.40;;;;;;;;;;5075504;28;20426;-78
2022/08/08 04:13:01;;;;;;;8.63;5.97;;;;;;;;;;5075982;28;20777;-78
2022/08/08 04:15:28;;;;;;;9.67;5.47;;;;;;;;;;5075959;28;20488;-77
2022/08/08 04:17:54;;;;;;;6.27;5.63;;;;;;;;;;5075964;28;20488;-78
2022/08/08 04:20:20;;;;;;;9.50;5.80;;;;;;;;;;5074187;28;20506;-78
2022/08/08 04:22:46;;;;;;;7.60;5.90;;;;;;;;;;5075723;28;20386;-78
2022/08/08 04:25:12;;;;;;;7.47;5.80;;;;;;;;;;5074768;28;20787;-77
2022/08/08 04:27:38;;;;;;;9.17;5.93;;;;;;;;;;5075931;28;20499;-78
2022/08/08 04:30:05;;;;;;;6.87;6.20;;;;;;;;;;5075272;28;20441;-78
2022/08/08 04:32:31;;;;;;;6.83;5.70;;;;;;;;;;5075841;28;20424;-78
2022/08/08 04:34:57;;;;;;;9.73;5.87;;;;;;;;;;5075725;28;20415;-78
2022/08/08 04:37:23;;;;;;;10.70;6.50;;;;;;;;;;5075431;28;20748;-78
2022/08/08 04:39:49;;;;;;;10.23;6.20;;;;;;;;;;5075147;28;20389;-78
2022/08/08 04:42:15;;;;;;;6.43;5.83;;;;;;;;;;5075759;28;20408;-78
2022/08/08 04:44:41;;;;;;;11.03;6.60;;;;;;;;;;5075370;28;20434;-78
2022/08/08 04:47:07;;;;;;;7.50;5.50;;;;;;;;;;5075466;28;20473;-78
2022/08/08 04:49:34;;;;;;;7.17;5.93;;;;;;;;;;5072888;28;20391;-78
2022/08/08 04:52:00;;;;;;;8.73;6.20;;;;;;;;;;5075325;28;20402;-78
2022/08/08 04:54:26;;;;;;;8.07;6.80;;;;;;;;;;5075393;28;20796;-78
2022/08/08 04:56:52;;;;;;;9.87;6.90;;;;;;;;;;5075331;28;20411;-78
2022/08/08 04:59:18;;;;;;;9.50;7.70;;;;;;;;;;5075072;28;20411;-78
2022/08/08 05:01:44;;;;;;;10.57;5.63;;;;;;;;;;5071398;28;20439;-78
2022/08/08 05:04:10;;;;;;;7.57;6.67;;;;;;;;;;5075153;28;20486;-79
2022/08/08 05:06:36;;;;;;;9.23;6.20;;;;;;;;;;5074956;28;20861;-78
2022/08/08 05:09:03;;;;;;;8.13;7.27;;;;;;;;;;5074953;28;20411;-77
2022/08/08 05:11:29;;;;;;;10.80;6.87;;;;;;;;;;5074472;28;20453;-79
2022/08/08 05:13:55;;;;;;;9.20;5.97;;;;;;;;;;5074892;28;20390;-77
2022/08/08 05:16:21;;;;;;;9.30;6.70;;;;;;;;;;5075002;28;20790;-77
2022/08/08 05:18:47;;;;;;;9.07;6.70;;;;;;;;;;5075004;28;20851;-76
2022/08/08 05:21:14;;;;;;;11.10;6.40;;;;;;;;;;5074743;28;20778;-77
2022/08/08 05:23:40;;;;;;;8.03;6.50;;;;;;;;;;5074643;28;20434;-76
2022/08/08 05:26:06;;;;;;;10.33;6.10;;;;;;;;;;5074720;28;20503;-76
2022/08/08 05:28:32;;;;;;;10.37;5.77;;;;;;;;;;5074697;28;20516;-76
2022/08/08 05:30:58;;;;;;;7.43;6.50;;;;;;;;;;5074289;28;20487;-76
2022/08/08 05:33:24;;;;;;;8.47;6.83;;;;;;;;;;5074591;28;20438;-76
2022/08/08 05:35:52;;;;;;;10.30;6.40;;;;;;;;;;5074309;28;20850;-77
2022/08/08 05:38:18;;;;;;;10.07;7.73;;;;;;;;;;5074348;28;20407;-76
2022/08/08 05:40:45;;;;;;;8.43;7.00;;;;;;;;;;5074189;28;20430;-76
2022/08/08 05:43:14;;;;;;;7.80;6.23;;;;;;;;;;5074341;28;20480;-76
2022/08/08 05:45:41;;;;;;;10.23;7.40;;;;;;;;;;5074203;28;20437;-77
2022/08/08 05:48:07;;;;;;;9.70;7.40;;;;;;;;;;5074481;28;20419;-76
2022/08/08 05:50:34;;;;;;;7.27;6.53;;;;;;;;;;5073714;28;20557;-77
2022/08/08 05:53:00;;;;;;;8.57;6.83;;;;;;;;;;5074184;28;20408;-76
2022/08/08 05:55:27;;;;;;;10.20;7.33;;;;;;;;;;5072967;28;20390;-76
2022/08/08 05:57:56;;;;;;;10.63;7.73;;;;;;;;;;5073853;28;20405;-76
2022/08/08 06:00:24;;;;;;;9.50;7.53;;;;;;;;;;5073298;28;20910;-76
2022/08/08 06:03:09;;;;;;;11.17;7.07;;;;;;;;;;5073740;28;20516;-77
2022/08/08 06:05:38;;;;;;;12.43;7.30;;;;;;;;;;5073766;28;20790;-77
2022/08/08 06:08:04;;;;;;;12.23;7.80;;;;;;;;;;5073674;28;20420;-77
2022/08/08 06:10:32;;;;;;;11.50;8.67;;;;;;;;;;5073204;28;20452;-77
2022/08/08 06:12:59;;;;;;;14.60;8.10;;;;;;;;;;5074086;28;20391;-77
2022/08/08 06:15:26;;;;;;;11.73;7.20;;;;;;;;;;5073631;28;20398;-76
2022/08/08 06:17:52;;;;;;;14.73;7.37;;;;;;;;;;5073632;28;20422;-77
2022/08/08 06:20:18;;;;;;;8.80;7.17;;;;;;;;;;5073167;28;20517;-77
2022/08/08 06:22:44;;;;;;;6.97;6.27;;;;;;;;;;5073551;28;20391;-77
2022/08/08 06:25:10;;;;;;;8.23;7.37;;;;;;;;;;5073384;28;20466;-76
2022/08/08 06:27:42;;;;;;;8.80;6.73;;;;;;;;;;5072588;28;20418;-77
2022/08/08 06:30:10;;;;;;;9.80;7.13;;;;;;;;;;5073056;28;20413;-77
2022/08/08 06:32:48;;;;;;;8.37;7.30;;;;;;;;;;5073451;28;20907;-77
2022/08/08 06:35:14;;;;;;;8.50;6.90;;;;;;;;;;5073493;28;20446;-77
2022/08/08 06:37:48;;;;;;;10.77;7.57;;;;;;;;;;5073348;28;20426;-77
2022/08/08 06:40:14;;;;;;;8.07;7.10;;;;;;;;;;5072955;28;20406;-74
2022/08/08 06:42:49;;;;;;;9.23;8.33;;;;;;;;;;5072947;28;20908;-75
2022/08/08 06:45:16;;;;;;;9.23;6.83;;;;;;;;;;5055749;28;20444;-74
2022/08/08 06:47:42;;;;;;;9.40;6.43;;;;;;;;;;5058834;28;20722;-74
2022/08/08 06:50:09;;;;;;;10.40;6.77;;;;;;;;;;5051585;28;20901;-74
2022/08/08 06:52:35;;;;;;;7.97;6.70;;;;;;;;;;5052989;28;20413;-74
2022/08/08 06:55:01;;;;;;;9.13;7.17;;;;;;;;;;5053004;28;20413;-74
2022/08/08 06:57:27;;;;;;;8.07;7.27;;;;;;;;;;5053203;28;20508;-77
2022/08/08 06:59:53;;;;;;;10.37;6.33;;;;;;;;;;5051545;28;20778;-76
2022/08/08 07:02:24;;;;;;;10.70;6.80;;;;;;;;;;5052839;28;20394;-76
2022/08/08 07:04:50;;;;;;;9.67;7.67;;;;;;;;;;5052807;28;20452;-76
2022/08/08 07:07:18;;;;;;;8.43;6.93;;;;;;;;;;5052749;28;20412;-76
2022/08/08 07:09:50;;;;;;;10.63;7.37;;;;;;;;;;5052197;28;20409;-76
2022/08/08 07:12:20;;;;;;;7.50;6.70;;;;;;;;;;5056076;28;20462;-76
2022/08/08 07:14:52;;;;;;;7.77;6.17;;;;;;;;;;5059584;28;20398;-76
2022/08/08 07:17:22;;;;;;;9.53;6.00;;;;;;;;;;5059726;28;20400;-75
2022/08/08 07:20:08;;;;;;;11.53;5.53;;;;;;;;;;5059281;28;20758;-76
2022/08/08 07:22:37;;;;;;;10.23;5.73;;;;;;;;;;5059507;28;20413;-76
2022/08/08 07:25:04;;;;;;;8.40;5.97;;;;;;;;;;5058328;28;20475;-76
2022/08/08 07:27:40;;;;;;;8.10;5.47;;;;;;;;;;5059559;28;20379;-76
2022/08/08 07:30:06;;;;;;;9.40;6.40;;;;;;;;;;5059292;28;20432;-76
2022/08/08 07:32:39;;;;;;;6.47;5.63;;;;;;;;;;5059441;28;20408;-76
2022/08/08 07:35:05;;;;;;;6.03;4.83;;;;;;;;;;5059318;28;20419;-76
2022/08/08 07:37:32;;;;;;;6.20;5.13;;;;;;;;;;5059469;28;20419;-78
2022/08/08 07:39:59;;;;;;;6.67;5.60;;;;;;;;;;5059073;28;20408;-76
2022/08/08 07:42:25;;;;;;;7.20;5.30;;;;;;;;;;5059491;28;20421;-76
2022/08/08 07:44:51;;;;;;;7.33;5.20;;;;;;;;;;5059197;28;21070;-76
2022/08/08 07:47:17;;;;;;;7.60;5.30;;;;;;;;;;5059505;28;20413;-76
2022/08/08 07:49:43;;;;;;;8.40;5.40;;;;;;;;;;5059015;28;20792;-76
2022/08/08 07:52:11;;;;;;;11.70;6.33;;;;;;;;;;5059585;28;20410;-76
2022/08/08 07:54:43;;;;;;;6.30;5.03;;;;;;;;;;5059386;28;20421;-76
2022/08/08 07:57:10;;;;;;;7.30;5.20;;;;;;;;;;5059270;28;20401;-76
2022/08/08 07:59:43;;;;;;;11.17;6.60;;;;;;;;;;5058935;28;20421;-76
2022/08/08 08:02:10;;;;;;;13.67;7.50;;;;;;;;;;5059310;28;20413;-76
2022/08/08 08:04:41;;;;;;;9.60;5.93;;;;;;;;;;5057763;28;20971;-76
2022/08/08 08:07:07;;;;;;;10.03;6.00;;;;;;;;;;5059221;28;20801;-76
2022/08/08 08:09:37;;;;;;;9.23;6.67;;;;;;;;;;5058780;28;20772;-76
2022/08/08 08:12:03;;;;;;;11.47;6.17;;;;;;;;;;5059273;28;20849;-76
2022/08/08 08:14:35;;;;;;;11.33;6.40;;;;;;;;;;5059017;28;20507;-76
2022/08/08 08:17:01;;;;;;;9.43;7.10;;;;;;;;;;5059217;28;20400;-76
2022/08/08 08:19:31;;;;;;;8.30;6.43;;;;;;;;;;5059101;28;20404;-76
2022/08/08 08:21:56;;;;;;;13.83;7.30;;;;;;;;;;5059051;28;20512;-76
2022/08/08 08:24:22;;;;;;;8.70;5.83;;;;;;;;;;5056511;28;20559;-76
2022/08/08 08:26:48;;;;;;;11.10;7.07;;;;;;;;;;5055819;28;20463;-76
2022/08/08 08:29:14;;;;;;;12.30;6.37;;;;;;;;;;5055769;28;20472;-76
2022/08/08 08:31:41;;;;;;;7.83;5.50;;;;;;;;;;5055652;28;20456;-76
2022/08/08 08:34:07;;;;;;;7.90;5.90;;;;;;;;;;5055757;28;20467;-76
2022/08/08 08:36:34;;;;;;;9.77;6.80;;;;;;;;;;5055880;28;20409;-76
2022/08/08 08:39:00;;;;;;;8.47;5.90;;;;;;;;;;5055908;28;20786;-76
2022/08/08 08:41:26;;;;;;;9.20;6.37;;;;;;;;;;5055412;28;20515;-76
2022/08/08 08:43:53;;;;;;;9.03;5.13;;;;;;;;;;5055468;28;20454;-76
2022/08/08 08:46:19;;;;;;;7.37;5.80;;;;;;;;;;5055606;28;20417;-76
2022/08/08 08:48:45;;;;;;;8.40;5.63;;;;;;;;;;5055402;28;20412;-76
2022/08/08 08:51:13;;;;;;;8.33;5.63;;;;;;;;;;5054945;28;20425;-76
2022/08/08 08:53:43;;;;;;;7.70;5.10;;;;;;;;;;5055410;28;20830;-76
2022/08/08 08:56:10;;;;;;;7.10;4.57;;;;;;;;;;5055377;28;20409;-76
2022/08/08 08:58:43;;;;;;;5.20;4.50;;;;;;;;;;5055225;28;20996;-76
2022/08/08 09:01:14;;;;;;;4.70;4.20;;;;;;;;;;5054821;28;20443;-76
2022/08/08 09:03:40;;;;;;;5.70;3.93;;;;;;;;;;5055301;28;20467;-76
2022/08/08 09:06:09;;;;;;;7.03;4.27;;;;;;;;;;5054973;28;20415;-76
2022/08/08 09:08:38;;;;;;;4.17;3.77;;;;;;;;;;5054945;28;20433;-77
2022/08/08 09:11:04;;;;;;;5.33;4.40;;;;;;;;;;5054402;28;20487;-76
2022/08/08 09:13:31;;;;;;;4.20;3.80;;;;;;;;;;5054735;28;20400;-76
2022/08/08 09:15:57;;;;;;;5.30;4.00;;;;;;;;;;5054946;28;20401;-76
2022/08/08 09:18:24;;;;;;;6.90;3.67;;;;;;;;;;5055111;28;20774;-76
2022/08/08 09:20:50;;;;;;;4.40;3.30;;;;;;;;;;5053509;28;20449;-76
2022/08/08 09:23:17;;;;;;;3.40;2.60;;;;;;;;;;5054981;28;20459;-76
2022/08/08 09:26:03;;;;;;;7.13;3.37;;;;;;;;;;5054818;28;20413;-77
2022/08/08 09:28:29;;;;;;;5.43;3.10;;;;;;;;;;5053407;28;20499;-76
2022/08/08 09:31:01;;;;;;;3.07;2.77;;;;;;;;;;5053318;28;20428;-76
2022/08/08 09:33:27;;;;;;;4.07;3.30;;;;;;;;;;5054604;28;20409;-76
2022/08/08 09:35:53;;;;;;;2.80;2.60;;;;;;;;;;5054135;28;20494;-76
2022/08/08 09:38:40;;;;;;;4.13;2.90;;;;;;;;;;5054538;28;20412;-76
2022/08/08 09:41:06;;;;;;;2.63;2.43;;;;;;;;;;5043977;28;20895;-76
2022/08/08 09:43:38;;;;;;;4.43;3.00;;;;;;;;;;5054438;28;20448;-77
2022/08/08 09:46:06;;;;;;;2.90;2.40;;;;;;;;;;5054765;28;20400;-77
2022/08/08 09:48:33;;;;;;;3.27;2.63;;;;;;;;;;5054445;28;20495;-76
2022/08/08 09:50:59;;;;;;;3.47;2.53;;;;;;;;;;5053981;28;20432;-76
2022/08/08 09:53:41;;;;;;;3.53;2.60;;;;;;;;;;5054241;28;20488;-76
2022/08/08 09:56:09;;;;;;;2.20;2.00;;;;;;;;;;5054302;28;20410;-76
2022/08/08 09:58:40;;;;;;;3.27;2.57;;;;;;;;;;5054152;28;20424;-76
2022/08/08 10:01:09;;;;;;;2.97;2.60;;;;;;;;;;5053785;28;20427;-77
2022/08/08 10:03:39;;;;;;;3.10;2.40;;;;;;;;;;5053811;28;20792;-76
2022/08/08 10:06:15;;;;;;;2.30;2.10;;;;;;;;;;5053691;28;20779;-76
2022/08/08 10:08:47;;;;;;;7.60;2.90;;;;;;;;;;5054051;28;20495;-75
2022/08/08 10:11:21;;;;;;;5.80;2.57;;;;;;;;;;5053398;28;20459;-77
2022/08/08 10:13:53;;;;;;;2.73;2.03;;;;;;;;;;5053714;28;20415;-76
2022/08/08 10:16:20;;;;;;;4.37;2.10;;;;;;;;;;5053749;28;20408;-74
2022/08/08 10:18:46;;;;;;;2.43;2.23;;;;;;;;;;5053760;28;20901;-77
2022/08/08 10:21:13;;;;;;;4.10;2.40;;;;;;;;;;5053476;28;20951;-76
2022/08/08 10:23:40;;;;;;;2.37;2.07;;;;;;;;;;5053552;28;20452;-75
2022/08/08 10:26:08;;;;;;;3.40;2.27;;;;;;;;;;5053592;28;20405;-76
2022/08/08 10:28:36;;;;;;;4.13;2.53;;;;;;;;;;5053957;28;20404;-77
2022/08/08 10:33:52;;;;;;;3.27;2.00;;;;;;;;;;5053778;28;20446;-76
2022/08/08 10:36:23;;;;;;;3.10;2.27;;;;;;;;;;5053791;28;20408;-76
2022/08/08 10:38:50;;;;;;;3.93;2.47;;;;;;;;;;5053715;28;20908;-76
2022/08/08 10:41:17;;;;;;;5.60;2.40;;;;;;;;;;5053107;28;20501;-76
2022/08/08 10:43:43;;;;;;;2.43;2.23;;;;;;;;;;5053268;28;20471;-77
2022/08/08 10:46:29;;;;;;;5.30;2.40;;;;;;;;;;5052674;28;20408;-78
2022/08/08 10:48:56;;;;;;;6.27;2.47;;;;;;;;;;5052062;28;20424;-80
2022/08/08 10:51:26;;;;;;;3.53;1.83;;;;;;;;;;5052816;28;20440;-80
2022/08/08 10:53:54;;;;;;;4.83;2.03;;;;;;;;;;5051930;28;20431;-80
2022/08/08 10:56:20;;;;;;;5.67;2.47;;;;;;;;;;5053227;28;20413;-79
2022/08/08 10:58:46;;;;;;;7.70;2.83;;;;;;;;;;5053101;28;20746;-79
2022/08/08 11:01:13;;;;;;;2.70;2.50;;;;;;;;;;5052877;28;20432;-79
2022/08/08 11:03:43;;;;;;;3.40;2.30;;;;;;;;;;5053054;28;20456;-76
2022/08/08 11:06:10;;;;;;;4.50;2.57;;;;;;;;;;5052899;28;20409;-76
2022/08/08 11:08:36;;;;;;;3.00;2.70;;;;;;;;;;5053013;28;20452;-76
2022/08/08 11:11:02;;;;;;;3.07;2.77;;;;;;;;;;5052691;28;20948;-76
2022/08/08 11:13:28;;;;;;;5.90;2.97;;;;;;;;;;5053202;28;20412;-76
2022/08/08 11:15:54;;;;;;;3.80;3.00;;;;;;;;;;5052901;28;20455;-76
2022/08/08 11:18:22;;;;;;;2.80;2.00;;;;;;;;;;5051579;28;20425;-76
2022/08/08 11:20:49;;;;;;;3.30;3.00;;;;;;;;;;5052702;28;20924;-76
2022/08/08 11:23:16;;;;;;;5.17;2.90;;;;;;;;;;5052890;28;20408;-76
2022/08/08 11:25:43;;;;;;;4.60;2.57;;;;;;;;;;5053128;28;20433;-76
2022/08/08 11:28:11;;;;;;;4.67;2.70;;;;;;;;;;5052606;28;20487;-77
2022/08/08 11:30:37;;;;;;;3.80;3.40;;;;;;;;;;5051178;28;20447;-76
2022/08/08 11:33:04;;;;;;;3.20;2.50;;;;;;;;;;5052799;28;20466;-76
2022/08/08 11:35:30;;;;;;;5.30;2.80;;;;;;;;;;5052819;28;20407;-76
2022/08/08 11:37:56;;;;;;;4.00;2.83;;;;;;;;;;5051465;28;20921;-76
2022/08/08 11:40:25;;;;;;;3.37;2.77;;;;;;;;;;5052438;28;20535;-77
2022/08/08 11:42:55;;;;;;;5.03;3.60;;;;;;;;;;5052748;28;20447;-76
2022/08/08 11:45:24;;;;;;;5.17;3.10;;;;;;;;;;5052577;28;20982;-76
2022/08/08 11:47:50;;;;;;;3.60;3.00;;;;;;;;;;5052612;28;20412;-77
2022/08/08 11:50:36;;;;;;;4.70;3.10;;;;;;;;;;5091444;22;20485;-76
2022/08/08 11:53:02;;;;;;;6.33;3.50;;;;;;;;;;5052731;28;20877;-77
2022/08/08 11:59:17;;;;;;;5.27;3.10;;;;;;;;;;5054116;28;20383;-76
2022/08/08 12:01:46;;;;;;;4.00;2.80;;;;;;;;;;5055741;28;20436;-76
2022/08/08 12:04:26;;;;;;;6.93;2.87;;;;;;;;;;5055042;28;20448;-76
2022/08/08 12:10:23;;;;;;;3.50;2.47;;;;;;;;;;5013293;28;20614;-76
2022/08/08 12:13:03;;;;;;;3.97;2.90;;;;;;;;;;5055806;28;20420;-76
2022/08/08 12:15:57;;;;;;;5.17;2.60;;;;;;;;;;5056215;28;20434;-76
2022/08/08 12:18:26;;;;;;;7.97;3.03;;;;;;;;;;5054869;28;20481;-76
2022/08/08 12:20:53;;;;;;;4.40;2.60;;;;;;;;;;5055431;28;20429;-76
2022/08/08 12:23:33;;;;;;;8.20;2.97;;;;;;;;;;5055847;28;20409;-76
2022/08/08 12:26:12;;;;;;;2.77;2.57;;;;;;;;;;5055849;28;20416;-76
2022/08/08 12:28:38;;;;;;;7.10;2.70;;;;;;;;;;5052591;28;20409;-76
2022/08/08 12:31:05;;;;;;;2.63;2.33;;;;;;;;;;5055324;28;20485;-76
2022/08/08 12:33:32;;;;;;;5.00;3.03;;;;;;;;;;5055926;28;20786;-76
2022/08/08 12:36:10;;;;;;;6.40;3.10;;;;;;;;;;5055746;28;20931;-76
2022/08/08 12:38:50;;;;;;;4.73;3.30;;;;;;;;;;5055725;28;20486;-76
2022/08/08 12:41:16;;;;;;;5.60;3.40;;;;;;;;;;5055327;28;20807;-77
2022/08/08 12:43:42;;;;;;;4.90;2.90;;;;;;;;;;5055669;28;20453;-76
2022/08/08 12:46:22;;;;;;;4.90;3.03;;;;;;;;;;5054294;28;20901;-76
2022/08/08 12:48:54;;;;;;;6.00;2.80;;;;;;;;;;5055589;28;20400;-77
2022/08/08 12:51:21;;;;;;;3.20;2.10;;;;;;;;;;5054992;28;20456;-76
2022/08/08 12:53:59;;;;;;;3.63;3.30;;;;;;;;;;5055366;28;20413;-76
2022/08/08 12:56:33;;;;;;;4.67;3.17;;;;;;;;;;5055313;28;20412;-76
2022/08/08 12:58:59;;;;;;;4.70;2.20;;;;;;;;;;5054914;28;20868;-76
2022/08/08 13:01:35;;;;;;;3.50;2.20;;;;;;;;;;5053723;28;20425;-76
2022/08/08 13:04:11;;;;;;;5.67;2.50;;;;;;;;;;5055183;28;20466;-76
2022/08/08 13:06:37;;;;;;;3.97;2.63;;;;;;;;;;5055328;28;20423;-76
2022/08/08 13:09:08;;;;;;;5.30;3.10;;;;;;;;;;5054866;28;20832;-76
2022/08/08 13:11:37;;;;;;;11.40;2.93;;;;;;;;;;5054180;28;20428;-77
2022/08/08 13:14:15;;;;;;;4.40;3.07;;;;;;;;;;5055030;28;20408;-76
2022/08/08 13:16:45;;;;;;;5.77;2.50;;;;;;;;;;5055011;28;20442;-77
2022/08/08 13:19:11;;;;;;;4.43;2.30;;;;;;;;;;5054748;28;20412;-79
2022/08/08 13:21:46;;;;;;;5.40;2.60;;;;;;;;;;5054488;28;20446;-77
2022/08/08 13:24:13;;;;;;;5.20;2.73;;;;;;;;;;5053619;28;20899;-77
2022/08/08 13:26:39;;;;;;;4.13;2.80;;;;;;;;;;5053665;28;20452;-76
2022/08/08 13:29:09;;;;;;;3.20;2.43;;;;;;;;;;5037357;28;20451;-76
2022/08/08 13:31:35;;;;;;;2.80;2.43;;;;;;;;;;5052818;28;20447;-77
2022/08/08 13:34:02;;;;;;;3.57;2.67;;;;;;;;;;5054755;28;20432;-76
2022/08/08 13:36:28;;;;;;;2.83;2.30;;;;;;;;;;5054778;28;20412;-77
2022/08/08 13:38:54;;;;;;;3.30;2.33;;;;;;;;;;5054702;28;20780;-76
2022/08/08 13:41:21;;;;;;;7.40;3.10;;;;;;;;;;5054075;28;20429;-76
2022/08/08 13:43:47;;;;;;;4.50;2.37;;;;;;;;;;5054373;28;20460;-76
2022/08/08 13:46:17;;;;;;;4.70;2.90;;;;;;;;;;5054500;28;20440;-76
2022/08/08 13:48:48;;;;;;;3.87;3.07;;;;;;;;;;5054345;28;20405;-77
2022/08/08 13:51:14;;;;;;;2.67;2.33;;;;;;;;;;5053899;28;20447;-77
2022/08/08 13:53:49;;;;;;;4.37;2.87;;;;;;;;;;5054237;28;20451;-77
2022/08/08 13:56:15;;;;;;;3.40;2.70;;;;;;;;;;5054328;28;20408;-77
2022/08/08 13:58:50;;;;;;;4.00;3.33;;;;;;;;;;5054088;28;20559;-77
2022/08/08 14:01:17;;;;;;;5.20;3.27;;;;;;;;;;5053626;28;20435;-76
2022/08/08 14:03:53;;;;;;;4.27;2.50;;;;;;;;;;5053907;28;20569;-76
2022/08/08 14:06:20;;;;;;;3.20;2.90;;;;;;;;;;5054012;28;20427;-76
2022/08/08 14:08:46;;;;;;;3.27;2.83;;;;;;;;;;5054006;28;20401;-76
2022/08/08 14:11:13;;;;;;;5.90;3.40;;;;;;;;;;5053612;28;20440;-76
2022/08/08 14:13:40;;;;;;;4.17;3.03;;;;;;;;;;5053795;28;20412;-76
2022/08/08 14:16:06;;;;;;;3.27;2.83;;;;;;;;;;5053762;28;20420;-76
2022/08/08 14:18:32;;;;;;;4.90;2.37;;;;;;;;;;5053730;28;20413;-75
2022/08/08 14:21:02;;;;;;;4.73;3.60;;;;;;;;;;5053159;28;20527;-75
2022/08/08 14:23:39;;;;;;;6.23;2.87;;;;;;;;;;5053326;28;20518;-76
2022/08/08 14:26:05;;;;;;;5.23;3.00;;;;;;;;;;5053530;28;20411;-77
2022/08/08 14:28:31;;;;;;;3.00;2.43;;;;;;;;;;5053543;28;20494;-75
2022/08/08 14:31:06;;;;;;;5.23;3.30;;;;;;;;;;5053219;28;20432;-76
2022/08/08 14:33:32;;;;;;;4.53;3.10;;;;;;;;;;5053508;28;20408;-77
2022/08/08 14:36:01;;;;;;;3.60;2.90;;;;;;;;;;5053399;28;20780;-76
2022/08/08 14:38:31;;;;;;;3.83;2.87;;;;;;;;;;5053475;28;20420;-75
2022/08/08 14:40:57;;;;;;;4.30;3.57;;;;;;;;;;5053087;28;20440;-80
2022/08/08 14:43:26;;;;;;;7.63;2.80;;;;;;;;;;5053472;28;20927;-80
2022/08/08 14:46:03;;;;;;;2.93;2.60;;;;;;;;;;5053394;28;20932;-78
2022/08/08 14:48:39;;;;;;;5.07;2.60;;;;;;;;;;5052533;28;21000;-79
2022/08/08 14:51:05;;;;;;;4.17;2.83;;;;;;;;;;5052706;28;20794;-79
2022/08/08 14:53:35;;;;;;;4.33;2.90;;;;;;;;;;5053317;28;20435;-79
2022/08/08 14:56:01;;;;;;;3.30;3.00;;;;;;;;;;5051920;28;20421;-79
2022/08/08 14:58:27;;;;;;;3.30;3.00;;;;;;;;;;5053263;28;20420;-80
2022/08/08 15:00:54;;;;;;;8.70;3.37;;;;;;;;;;5046348;28;20527;-79
2022/08/08 15:03:20;;;;;;;4.77;2.97;;;;;;;;;;5031924;28;20413;-80
2022/08/08 15:05:46;;;;;;;3.80;3.03;;;;;;;;;;5033075;28;20413;-80
2022/08/08 15:08:12;;;;;;;3.40;2.80;;;;;;;;;;5033019;28;20428;-80
2022/08/08 15:10:38;;;;;;;5.13;3.20;;;;;;;;;;5031395;28;20433;-80
2022/08/08 15:13:05;;;;;;;4.80;2.80;;;;;;;;;;5032958;28;20468;-81